Flight Track Log - Related Links

Times and Time Zones

All times are in EDT time to prevent confusion due to time zone crossing. See the UAL407 flight status page for this flight to view local times or setup timezone preferences in your user account.

Time Position Orientation Groundspeed Altitude Reporting Facility
EDT Latitude Longitude Course Direction KTS MPH feet Rate Location/Type
Thu 06:05:37 PM 42.7653 -73.8061 324° Northwest 142 163 1,300  Level Boston Center
Thu 06:06:43 PM 42.8189 -73.8497 329° Northwest 227 261 3,000 2,225 Climbing Boston Center
Thu 06:08:08 PM 42.8992 -73.9225 326° Northwest 260 299 6,900 2,772 Climbing Boston Center
Thu 06:09:00 PM 42.8277 -74.3022 284° West  Level FlightAware Approximate
Thu 06:09:08 PM 42.9569 -73.9778 325° Northwest 273 314 9,700  Level Boston Center
Thu 06:10:00 PM 42.8495 -74.4299 283° West  Level FlightAware Approximate
Thu 06:10:08 PM 43.0308 -74.0592 321° Northwest 294 338 11,900  Level Boston Center
Thu 06:11:00 PM 42.8815 -74.5482 324° Northwest  Level FlightAware Approximate
Thu 06:11:20 PM 43.0922 -74.1431 315° West 327 376 14,100  Level Boston Center
Thu 06:12:20 PM 43.1061 -74.3200 276° West 374 430 16,700 2,350 Climbing Boston Center
Thu 06:13:20 PM 43.1136 -74.4878 274° West 403 464 18,800 2,050 Climbing Boston Center
Thu 06:14:20 PM 43.1169 -74.6417 272° West 408 470 20,800 1,800 Climbing Boston Center
Thu 06:15:20 PM 43.1222 -74.7983 273° West 408 470 22,400 1,636 Climbing Boston Center
Thu 06:16:32 PM 43.1269 -74.9636 272° West 419 482 24,400 1,591 Climbing Boston Center
Thu 06:17:32 PM 43.1328 -75.1572 272° West 424 488 25,900 1,300 Climbing Boston Center
Thu 06:18:32 PM 43.1372 -75.3253 272° West 429 494 27,000 1,100 Climbing Boston Center
Thu 06:19:32 PM 43.1431 -75.4964 273° West 440 506 28,100 1,050 Climbing Boston Center
Thu 06:20:32 PM 43.1472 -75.6503 272° West 453 521 29,100 1,250 Climbing Boston Center
Thu 06:21:32 PM 43.1525 -75.8242 272° West 453 521 30,600 1,350 Climbing Boston Center
Thu 06:22:32 PM 43.1558 -75.9953 272° West 458 527 31,800 1,150 Climbing Boston Center
Thu 06:23:32 PM 43.1608 -76.1608 272° West 458 527 32,900 1,050 Climbing Boston Center
Thu 06:24:32 PM 43.1614 -76.3317 270° West 458 527 33,900 868 Climbing Boston Center
Thu 06:24:48 PM 43.1597 -76.3906 268° West 454 522 34,000 632 Climbing Cleveland Center
Thu 06:25:48 PM 43.1614 -76.5556 271° West 454 522 34,700 700 Climbing Cleveland Center
Thu 06:26:48 PM 43.1597 -76.6894 269° West 454 522 35,400 650 Climbing Cleveland Center
Thu 06:27:48 PM 43.1597 -76.8831 270° West 442 509 36,000 300 Climbing Cleveland Center
Thu 06:28:48 PM 43.1586 -77.0483 270° West 437 503 36,000  Level Cleveland Center
Thu 06:29:48 PM 43.1572 -77.2106 269° West 437 503 36,000  Level Cleveland Center
Thu 06:30:48 PM 43.1575 -77.3700 270° West 437 503 36,000  Level Cleveland Center
Thu 06:31:48 PM 43.1558 -77.5353 269° West 437 503 36,000  Level Cleveland Center
Thu 06:32:48 PM 43.1539 -77.7003 269° West 437 503 36,000  Level Cleveland Center
Thu 06:33:48 PM 43.1514 -77.8656 269° West 442 509 36,000  Level Cleveland Center
Thu 06:34:48 PM 43.1469 -78.0281 268° West 442 509 36,000  Level Cleveland Center
Thu 06:35:48 PM 43.1461 -78.1872 270° West 442 509 36,000  Level Cleveland Center
Thu 06:36:48 PM 43.1431 -78.3525 269° West 442 509 36,000  Level Cleveland Center
Thu 06:37:48 PM 43.1400 -78.5147 269° West 442 509 36,000  Level Cleveland Center
Thu 06:38:48 PM 43.1344 -78.6744 267° West 442 509 36,000  Level Cleveland Center
Thu 06:39:48 PM 43.1306 -78.8394 268° West 437 503 36,000  Level Cleveland Center
Thu 06:40:32 PM 43.1167 -78.9500 260° West 430 495 36,000  Level Toronto Center
Thu 06:41:32 PM 43.1167 -79.1000 270° West 420 483 36,000  Level Toronto Center
Thu 06:42:32 PM 43.1000 -79.2500 261° West 420 483 36,000  Level Toronto Center
Thu 06:43:31 PM 43.1000 -79.4333 270° West 420 483 36,000  Level Toronto Center
Thu 06:44:31 PM 43.1000 -79.5667 270° West 420 483 36,000  Level Toronto Center
Thu 06:45:31 PM 43.0833 -79.7500 263° West 420 483 36,000  Level Toronto Center
Thu 06:46:31 PM 43.0833 -79.9000 270° West 420 483 36,000  Level Toronto Center
Thu 06:47:31 PM 43.0833 -80.0667 270° West 420 483 36,000  Level Toronto Center
Thu 06:48:32 PM 43.0667 -80.2333 262° West 420 483 36,000  Level Toronto Center
Thu 06:49:32 PM 43.0667 -80.3667 270° West 420 483 36,000  Level Toronto Center
Thu 06:50:32 PM 43.0667 -80.5500 270° West 420 483 36,000  Level Toronto Center
Thu 06:51:32 PM 43.0500 -80.7000 261° West 420 483 36,000  Level Toronto Center
Thu 06:52:32 PM 43.0333 -80.8500 261° West 420 483 36,000  Level Toronto Center
Thu 06:53:32 PM 43.0333 -81.0000 270° West 410 472 36,000  Level Toronto Center
Thu 06:54:32 PM 43.0167 -81.1667 262° West 420 483 36,000  Level Toronto Center
Thu 06:55:32 PM 43.0167 -81.3167 270° West 420 483 36,000  Level Toronto Center
Thu 06:56:32 PM 43.0167 -81.4833 270° West 420 483 36,000  Level Toronto Center
Thu 06:57:32 PM 43.0167 -81.6333 270° West 420 483 36,000  Level Toronto Center
Thu 06:58:32 PM 43.0167 -81.8000 270° West 420 483 36,000  Level Toronto Center
Thu 06:59:32 PM 43.0000 -81.9667 262° West 420 483 36,000  Level Toronto Center
Thu 07:00:32 PM 43.0000 -82.1167 270° West 420 483 36,000  Level Toronto Center
Thu 07:01:32 PM 43.0000 -82.2833 270° West 420 483 36,000  Level Toronto Center
Thu 07:02:32 PM 43.0000 -82.4333 270° West 400 460 36,000  Level Toronto Center
Thu 07:03:32 PM 43.0000 -82.5667 270° West 400 460 36,000  Level Toronto Center
Thu 07:04:36 PM 43.0131 -82.7497 276° West 403 464 36,000  Level Cleveland Center
Thu 07:05:35 PM 43.0667 -82.8878 298° West 398 458 36,000  Level Cleveland Center
Thu 07:06:36 PM 43.1219 -83.0264 299° West 398 458 36,000  Level Cleveland Center
Thu 07:07:35 PM 43.1794 -83.1656 300° West 408 470 36,000 -504 Level Cleveland Center
Thu 07:08:35 PM 43.1928 -83.3083 277° West 398 458 35,000 -950 Descending Cleveland Center
Thu 07:09:35 PM 43.1603 -83.4522 253° West 389 448 34,100 -950 Descending Cleveland Center
Thu 07:10:35 PM 43.1250 -83.6069 253° West 400 460 33,100 -1,000 Descending Cleveland Center
Thu 07:11:35 PM 43.0853 -83.7642 251° West 420 483 32,100 -545 Descending Cleveland Center
Thu 07:12:36 PM 43.0475 -83.9244 252° West 432 497 32,000 -50 Descending Cleveland Center
Thu 07:13:36 PM 43.0075 -84.0811 251° West 437 503 32,000  Level Cleveland Center
Thu 07:14:35 PM 42.9692 -84.2381 252° West 437 503 32,000  Level Cleveland Center
Thu 07:15:36 PM 42.9336 -84.3750 251° West 436 502 32,000  Level Cleveland Center
Thu 07:16:17 PM 42.9064 -84.4925 252° West 436 502 32,000  Level Chicago Center
Thu 07:17:19 PM 42.8756 -84.6511 255° West 434 499 32,000  Level Chicago Center
Thu 07:18:21 PM 42.8608 -84.8142 263° West 437 503 32,000  Level Chicago Center
Thu 07:19:23 PM 42.8431 -84.9764 262° West 433 498 32,000  Level Chicago Center
Thu 07:20:25 PM 42.8258 -85.1378 262° West 433 498 32,000 -871 Level Chicago Center
Thu 07:21:27 PM 42.8050 -85.3319 262° West 431 496 30,200 -1,839 Descending Chicago Center
Thu 07:22:29 PM 42.7875 -85.4819 261° West 412 474 28,200 -1,984 Descending Chicago Center
Thu 07:23:31 PM 42.7650 -85.6169 257° West 376 433 26,100 -2,129 Descending Chicago Center
Thu 07:24:33 PM 42.7403 -85.7517 256° West 366 421 23,800 -2,129 Descending Chicago Center
Thu 07:25:35 PM 42.7158 -85.8892 256° West 371 427 21,700 -1,839 Descending Chicago Center
Thu 07:26:37 PM 42.6897 -86.0317 256° West 382 440 20,000 -823 Descending Chicago Center
Thu 07:27:39 PM 42.6633 -86.1797 256° West 398 458 20,000  Level Chicago Center
Thu 07:28:41 PM 42.6353 -86.3247 255° West 396 456 20,000 -871 Level Chicago Center
Thu 07:29:43 PM 42.6017 -86.4961 255° West 390 449 18,200 -1,597 Descending Chicago Center
Thu 07:30:45 PM 42.5761 -86.6342 256° West 379 436 16,700 -1,548 Descending Chicago Center
Thu 07:31:47 PM 42.5494 -86.7719 255° West 378 435 15,000 -1,452 Descending Chicago Center
Thu 07:32:49 PM 42.5169 -86.8889 249° West 344 396 13,700 -1,306 Descending Chicago Center
Thu 07:33:51 PM 42.4872 -86.9939 249° West 305 351 12,300 -1,210 Descending Chicago Center
Thu 07:34:53 PM 42.4569 -87.0989 249° West 300 345 11,200 -1,113 Descending Chicago Center
Thu 07:35:55 PM 42.4247 -87.2211 250° West 289 333 10,000 -581 Descending Chicago Center
Thu 07:36:57 PM 42.3958 -87.3264 250° West 295 339 10,000  Level Chicago Center
Thu 07:37:59 PM 42.3686 -87.4269 250° West 295 339 10,000 -242 Level Chicago Center
Thu 07:39:01 PM 42.3392 -87.5267 248° West 289 333 9,500 -774 Descending Chicago Center
Thu 07:40:03 PM 42.2822 -87.5950 222° Southwest 274 315 8,400 -1,122 Descending Chicago Center
Thu 07:41:04 PM 42.2117 -87.6675 217° Southwest 268 308 7,200 -683 Descending Chicago Center
Thu 07:42:06 PM 42.1539 -87.7286 218° Southwest 266 306 7,000 -90 Descending Chicago Center
Thu 07:43:17 PM 42.0833 -87.8167 223° Southwest 277 319 7,000  Level Chicago TRACON
Thu 07:45:17 PM 42.1000 -88.0333 276° West 285 328 7,000 -633 Level Chicago TRACON
Thu 07:46:17 PM 42.0833 -88.1333 257° West 274 315 5,100 -1,513 Descending Chicago TRACON
Thu 07:47:16 PM 42.0903 -88.2256 276° West 275 316 4,000 -545 Descending Chicago Center
Thu 07:48:18 PM 42.0903 -88.3142 270° West 254 292 4,000  Level Chicago Center
Thu 07:49:20 PM 42.0878 -88.3986 268° West 237 273 4,000  Level Chicago Center
Thu 07:50:22 PM 42.0289 -88.4164 193° South 231 266 4,000  Level Chicago Center
Thu 07:51:24 PM 41.9825 -88.3544 135° Southeast 222 255 4,000  Level Chicago Center
Thu 07:52:26 PM 41.9833 -88.2747 89° East 220 253 4,000  Level Chicago Center
Thu 07:53:28 PM 41.9825 -88.2078 91° East 201 231 4,000 -48 Level Chicago Center
Thu 07:54:30 PM 41.9833 -88.1431 89° East 187 215 3,900 -491 Descending Chicago Center
Thu 07:55:18 PM 41.9833 -88.0833 90° East 179 206 3,100 -944 Descending Chicago TRACON
Thu 07:56:18 PM 41.9833 -88.0167 90° East 153 176 2,200 -900 Descending Chicago TRACON

Login

Don't have an account? Register now (free) for customized features, flight alerts, and more!